Time;durP1;ratioP1;P1;durP2;ratioP2;P2;SDS_P1;SDS_P2;PMS_P1;PMS_P2;Temp;Humidity;BMP_temperature;BMP_pressure;BME280_temperature;BME280_humidity;BME280_pressure;Samples;Min_cycle;Max_cycle;Signal;HPM_P1;HPM_P2
2023/09/02 00:01:06;;;;;;;4.15;3.78;;;;;;;;;;4876529;29;20236;-84
2023/09/02 00:03:35;;;;;;;4.95;4.45;;;;;;;;;;4876507;29;20209;-83
2023/09/02 00:06:02;;;;;;;4.88;4.45;;;;;;;;;;4877657;29;20218;-83
2023/09/02 00:08:31;;;;;;;4.78;4.13;;;;;;;;;;4877856;29;20208;-82
2023/09/02 00:11:00;;;;;;;4.60;4.15;;;;;;;;;;4878302;29;20251;-83
2023/09/02 00:13:28;;;;;;;4.80;4.40;;;;;;;;;;4877874;29;20209;-82
2023/09/02 00:15:56;;;;;;;4.72;4.32;;;;;;;;;;4877902;29;20211;-83
2023/09/02 00:18:23;;;;;;;5.07;4.55;;;;;;;;;;4876939;29;20649;-83
2023/09/02 00:20:50;;;;;;;5.15;4.53;;;;;;;;;;4876416;29;20300;-83
2023/09/02 00:23:17;;;;;;;4.00;3.70;;;;;;;;;;4876553;29;20600;-84
2023/09/02 00:25:46;;;;;;;5.03;4.53;;;;;;;;;;4877397;29;20247;-83
2023/09/02 00:28:14;;;;;;;5.15;4.78;;;;;;;;;;4876564;29;20207;-83
2023/09/02 00:30:42;;;;;;;4.10;3.80;;;;;;;;;;4875916;29;20790;-82
2023/09/02 00:33:10;;;;;;;5.35;4.85;;;;;;;;;;4876660;29;20303;-83
2023/09/02 00:35:37;;;;;;;4.50;4.10;;;;;;;;;;4884745;29;20215;-83
2023/09/02 00:38:05;;;;;;;5.05;4.28;;;;;;;;;;4875629;29;20238;-83
2023/09/02 00:40:33;;;;;;;5.18;4.05;;;;;;;;;;4876559;29;20230;-82
2023/09/02 00:43:02;;;;;;;5.43;4.63;;;;;;;;;;4877285;29;20301;-83
2023/09/02 00:45:29;;;;;;;9.30;5.43;;;;;;;;;;4876380;29;20206;-82
2023/09/02 00:47:59;;;;;;;5.80;4.63;;;;;;;;;;4864566;29;20740;-82
2023/09/02 00:50:27;;;;;;;5.95;4.80;;;;;;;;;;4877040;29;20205;-82
2023/09/02 00:52:55;;;;;;;5.68;4.53;;;;;;;;;;4876455;29;20853;-83
2023/09/02 00:55:23;;;;;;;5.00;4.57;;;;;;;;;;4876823;29;20208;-83
2023/09/02 00:57:50;;;;;;;5.43;4.85;;;;;;;;;;4883110;29;20203;-82
2023/09/02 01:00:20;;;;;;;5.57;4.38;;;;;;;;;;4882744;29;20246;-83
2023/09/02 01:02:47;;;;;;;7.05;5.28;;;;;;;;;;4876877;29;20218;-82
2023/09/02 01:05:15;;;;;;;4.50;3.97;;;;;;;;;;4876984;29;20277;-83
2023/09/02 01:07:43;;;;;;;7.47;4.80;;;;;;;;;;4875694;29;20214;-83
2023/09/02 01:10:10;;;;;;;4.88;4.20;;;;;;;;;;4876686;29;20230;-83
2023/09/02 01:12:38;;;;;;;4.63;4.22;;;;;;;;;;4876581;29;20280;-84
2023/09/02 01:15:07;;;;;;;7.00;4.97;;;;;;;;;;4876133;29;20220;-82
2023/09/02 01:17:36;;;;;;;5.82;5.22;;;;;;;;;;4873961;29;20218;-83
2023/09/02 01:20:05;;;;;;;4.85;4.32;;;;;;;;;;4876784;29;20275;-82
2023/09/02 01:22:43;;;;;;;5.57;4.75;;;;;;;;;;4896445;29;20219;-82
2023/09/02 01:25:18;;;;;;;5.68;5.10;;;;;;;;;;4895095;29;20310;-82
2023/09/02 01:27:49;;;;;;;5.63;4.13;;;;;;;;;;4895142;29;20208;-83
2023/09/02 01:30:17;;;;;;;8.05;4.75;;;;;;;;;;4894812;29;20206;-83
2023/09/02 01:32:45;;;;;;;9.00;5.63;;;;;;;;;;4895142;29;20278;-82
2023/09/02 01:35:25;;;;;;;8.27;5.40;;;;;;;;;;4895101;29;20263;-83
2023/09/02 01:37:55;;;;;;;5.55;4.50;;;;;;;;;;4894585;29;20766;-83
2023/09/02 01:40:25;;;;;;;12.23;6.93;;;;;;;;;;4894889;29;20810;-82
2023/09/02 01:42:55;;;;;;;10.82;7.10;;;;;;;;;;4894047;29;20211;-82
2023/09/02 01:45:23;;;;;;;15.02;7.97;;;;;;;;;;4895122;29;20196;-82
2023/09/02 01:47:53;;;;;;;12.07;6.60;;;;;;;;;;4894786;29;20333;-83
2023/09/02 01:50:23;;;;;;;6.10;4.53;;;;;;;;;;4894471;29;20650;-82
2023/09/02 01:52:51;;;;;;;5.30;4.75;;;;;;;;;;4894443;29;20235;-83
2023/09/02 01:55:18;;;;;;;6.05;4.80;;;;;;;;;;4894519;29;20210;-82
2023/09/02 01:57:46;;;;;;;5.68;4.43;;;;;;;;;;4893841;29;20215;-84
2023/09/02 02:00:17;;;;;;;7.13;4.70;;;;;;;;;;4894153;29;20339;-82
2023/09/02 02:02:46;;;;;;;8.55;5.22;;;;;;;;;;4893896;29;20206;-81
2023/09/02 02:05:13;;;;;;;7.05;5.43;;;;;;;;;;4894258;29;20262;-83
2023/09/02 02:07:42;;;;;;;6.40;5.25;;;;;;;;;;4893965;29;20302;-84
2023/09/02 02:10:12;;;;;;;5.43;4.63;;;;;;;;;;4894728;29;20260;-82
2023/09/02 02:12:43;;;;;;;6.25;4.35;;;;;;;;;;4893679;29;20219;-82
2023/09/02 02:15:11;;;;;;;6.47;5.47;;;;;;;;;;4894269;29;20204;-83
2023/09/02 02:17:41;;;;;;;5.80;5.20;;;;;;;;;;4893296;29;20209;-83
2023/09/02 02:20:10;;;;;;;5.40;4.90;;;;;;;;;;4894445;29;20246;-82
2023/09/02 02:22:37;;;;;;;7.78;5.40;;;;;;;;;;4893654;29;20233;-82
2023/09/02 02:25:05;;;;;;;5.97;4.90;;;;;;;;;;4892967;29;20215;-82
2023/09/02 02:27:33;;;;;;;6.50;4.88;;;;;;;;;;4893976;29;20284;-83
2023/09/02 02:30:05;;;;;;;7.20;4.40;;;;;;;;;;4893839;29;20222;-82
2023/09/02 02:32:34;;;;;;;4.35;3.95;;;;;;;;;;4876761;29;20747;-83
2023/09/02 02:35:05;;;;;;;5.38;4.97;;;;;;;;;;4874897;29;20221;-83
2023/09/02 02:37:34;;;;;;;4.32;3.92;;;;;;;;;;4863531;29;20296;-82
2023/09/02 02:40:06;;;;;;;5.10;4.05;;;;;;;;;;4878330;29;20249;-83
2023/09/02 02:42:35;;;;;;;4.45;3.70;;;;;;;;;;4881637;29;20302;-82
2023/09/02 02:45:03;;;;;;;4.15;3.85;;;;;;;;;;4864162;29;20207;-83
2023/09/02 02:47:30;;;;;;;4.05;3.55;;;;;;;;;;4874251;29;20267;-83
2023/09/02 02:49:57;;;;;;;5.10;3.60;;;;;;;;;;4874768;29;20659;-83
2023/09/02 02:52:26;;;;;;;4.63;3.45;;;;;;;;;;4874686;29;20207;-83
2023/09/02 02:54:55;;;;;;;5.60;3.40;;;;;;;;;;4875297;29;20214;-83
2023/09/02 02:57:22;;;;;;;7.20;4.07;;;;;;;;;;4874179;29;20261;-82
2023/09/02 02:59:52;;;;;;;3.75;3.45;;;;;;;;;;4874689;29;20223;-84
2023/09/02 03:02:22;;;;;;;3.70;3.17;;;;;;;;;;4875532;29;20212;-84
2023/09/02 03:04:49;;;;;;;5.82;4.20;;;;;;;;;;4882517;29;20894;-81
2023/09/02 03:07:16;;;;;;;4.43;3.72;;;;;;;;;;4876917;29;20216;-82
2023/09/02 03:09:46;;;;;;;3.77;3.47;;;;;;;;;;4874707;29;20229;-82
2023/09/02 03:12:13;;;;;;;4.13;3.80;;;;;;;;;;4874612;29;20697;-82
2023/09/02 03:14:40;;;;;;;4.15;3.75;;;;;;;;;;4875426;29;20260;-83
2023/09/02 03:17:07;;;;;;;9.98;3.60;;;;;;;;;;4886517;29;20214;-82
2023/09/02 03:19:36;;;;;;;3.53;3.33;;;;;;;;;;4893372;29;20499;-82
2023/09/02 03:22:05;;;;;;;6.32;4.30;;;;;;;;;;4894272;29;20240;-82
2023/09/02 03:24:32;;;;;;;3.05;2.85;;;;;;;;;;4893796;29;20208;-82
2023/09/02 03:27:04;;;;;;;6.47;3.97;;;;;;;;;;4892852;29;20205;-83
2023/09/02 03:29:30;;;;;;;3.83;3.53;;;;;;;;;;4894259;29;20237;-82
2023/09/02 03:31:58;;;;;;;3.63;3.33;;;;;;;;;;4893367;29;20768;-82
2023/09/02 03:34:25;;;;;;;3.38;3.15;;;;;;;;;;4897281;29;20693;-82
2023/09/02 03:36:54;;;;;;;3.92;3.63;;;;;;;;;;4896428;29;20213;-83
2023/09/02 03:39:21;;;;;;;4.25;3.85;;;;;;;;;;4897041;29;20240;-82
2023/09/02 03:41:50;;;;;;;4.13;3.80;;;;;;;;;;4896090;29;20234;-83
2023/09/02 03:44:19;;;;;;;4.15;3.85;;;;;;;;;;4888887;29;20218;-82
2023/09/02 03:46:46;;;;;;;3.95;3.45;;;;;;;;;;4885791;29;20707;-83
2023/09/02 03:49:14;;;;;;;5.30;4.28;;;;;;;;;;4895684;29;20296;-83
2023/09/02 03:51:42;;;;;;;6.35;3.75;;;;;;;;;;4896669;29;20206;-83
2023/09/02 03:54:10;;;;;;;3.65;3.35;;;;;;;;;;4896227;29;20210;-81
2023/09/02 03:56:41;;;;;;;5.63;3.88;;;;;;;;;;4897445;29;20210;-82
2023/09/02 03:59:08;;;;;;;7.25;3.55;;;;;;;;;;4897723;29;20230;-83
2023/09/02 04:01:38;;;;;;;4.47;4.07;;;;;;;;;;4895076;29;20320;-83
2023/09/02 04:04:07;;;;;;;5.13;4.63;;;;;;;;;;4896361;29;20210;-82
2023/09/02 04:06:37;;;;;;;4.97;4.50;;;;;;;;;;4895827;29;20224;-83
2023/09/02 04:09:08;;;;;;;7.22;5.03;;;;;;;;;;4895926;29;20313;-82
2023/09/02 04:11:36;;;;;;;4.82;4.43;;;;;;;;;;4896169;29;20204;-82
2023/09/02 04:14:04;;;;;;;6.63;4.55;;;;;;;;;;4895655;29;20463;-82
2023/09/02 04:16:33;;;;;;;5.40;4.68;;;;;;;;;;4895842;29;20220;-83
2023/09/02 04:19:02;;;;;;;6.00;4.28;;;;;;;;;;4896373;29;20202;-83
2023/09/02 04:21:31;;;;;;;3.97;3.58;;;;;;;;;;4895536;29;20753;-83
2023/09/02 04:23:58;;;;;;;4.40;4.10;;;;;;;;;;4896314;29;20229;-83
2023/09/02 04:26:27;;;;;;;6.00;4.35;;;;;;;;;;4887454;29;20303;-83
2023/09/02 04:28:56;;;;;;;5.07;4.47;;;;;;;;;;4876785;29;20219;-83
2023/09/02 04:31:23;;;;;;;5.95;4.82;;;;;;;;;;4881332;29;20266;-83
2023/09/02 04:33:51;;;;;;;10.32;5.07;;;;;;;;;;4876643;29;20216;-82
2023/09/02 04:36:23;;;;;;;5.47;4.97;;;;;;;;;;4882622;29;20589;-82
2023/09/02 04:38:55;;;;;;;4.78;4.38;;;;;;;;;;4894559;29;20655;-82
2023/09/02 04:41:22;;;;;;;4.88;4.53;;;;;;;;;;4895678;29;20232;-83
2023/09/02 04:43:50;;;;;;;4.97;4.63;;;;;;;;;;4894280;29;20209;-85
2023/09/02 04:46:20;;;;;;;4.72;4.35;;;;;;;;;;4895568;29;20261;-82
2023/09/02 04:48:50;;;;;;;5.80;5.20;;;;;;;;;;4894957;29;20215;-83
2023/09/02 04:51:20;;;;;;;4.38;4.07;;;;;;;;;;4895806;29;20643;-83
2023/09/02 04:53:53;;;;;;;5.05;4.63;;;;;;;;;;4895720;29;20205;-84
2023/09/02 04:56:23;;;;;;;4.72;4.32;;;;;;;;;;4894235;29;20268;-83
2023/09/02 04:58:52;;;;;;;4.90;4.50;;;;;;;;;;4895027;29;20264;-83
2023/09/02 05:01:20;;;;;;;5.50;5.03;;;;;;;;;;4895327;29;20312;-85
2023/09/02 05:03:51;;;;;;;5.18;4.68;;;;;;;;;;4899196;29;20265;-83
2023/09/02 05:06:20;;;;;;;5.15;4.75;;;;;;;;;;4904970;29;20216;-82
2023/09/02 05:08:50;;;;;;;5.10;4.65;;;;;;;;;;4895073;29;20315;-83
2023/09/02 05:11:20;;;;;;;6.10;4.45;;;;;;;;;;4894898;29;20292;-83
2023/09/02 05:13:56;;;;;;;5.05;4.65;;;;;;;;;;4895043;29;20205;-83
2023/09/02 05:16:30;;;;;;;4.90;4.57;;;;;;;;;;4895379;29;20219;-84
2023/09/02 05:19:01;;;;;;;6.40;4.57;;;;;;;;;;4894281;29;20219;-84
2023/09/02 05:21:36;;;;;;;4.30;3.83;;;;;;;;;;4895158;29;20240;-84
2023/09/02 05:24:07;;;;;;;5.03;4.63;;;;;;;;;;4894745;29;20248;-84
2023/09/02 05:26:41;;;;;;;4.28;3.97;;;;;;;;;;4894179;29;20204;-82
2023/09/02 05:29:11;;;;;;;5.85;5.25;;;;;;;;;;4894582;29;20267;-84
2023/09/02 05:31:43;;;;;;;7.20;4.72;;;;;;;;;;4894491;29;20248;-83
2023/09/02 05:34:24;;;;;;;5.38;5.07;;;;;;;;;;4894505;29;20208;-84
2023/09/02 05:36:52;;;;;;;5.97;5.40;;;;;;;;;;4894107;29;20609;-85
2023/09/02 05:39:19;;;;;;;5.82;5.32;;;;;;;;;;4893952;29;20205;-85
2023/09/02 05:41:50;;;;;;;5.68;5.18;;;;;;;;;;4893457;29;20236;-84
2023/09/02 05:44:19;;;;;;;6.13;5.72;;;;;;;;;;4894314;29;20209;-84
2023/09/02 05:46:47;;;;;;;6.47;5.90;;;;;;;;;;4893950;29;20690;-84
2023/09/02 05:49:15;;;;;;;7.50;5.85;;;;;;;;;;4894850;29;20209;-84
2023/09/02 05:51:43;;;;;;;6.38;5.72;;;;;;;;;;4894946;29;20209;-84
2023/09/02 05:54:12;;;;;;;6.40;5.82;;;;;;;;;;4895188;29;20208;-83
2023/09/02 05:56:40;;;;;;;5.82;5.40;;;;;;;;;;4893465;29;20204;-83
2023/09/02 05:59:10;;;;;;;6.57;5.30;;;;;;;;;;4894706;29;20695;-85
2023/09/02 06:01:38;;;;;;;5.38;4.97;;;;;;;;;;4894360;29;20240;-82
2023/09/02 06:04:06;;;;;;;5.80;5.35;;;;;;;;;;4893872;29;20212;-84
2023/09/02 06:06:35;;;;;;;8.00;5.13;;;;;;;;;;4894468;29;20299;-82
2023/09/02 06:09:04;;;;;;;7.22;6.53;;;;;;;;;;4894058;29;20247;-83
2023/09/02 06:11:32;;;;;;;6.38;5.88;;;;;;;;;;4893505;29;20204;-83
2023/09/02 06:14:00;;;;;;;5.40;4.97;;;;;;;;;;4893249;29;20200;-83
2023/09/02 06:16:28;;;;;;;6.20;5.63;;;;;;;;;;4893574;29;20609;-83
2023/09/02 06:18:57;;;;;;;6.65;6.00;;;;;;;;;;4893757;29;20219;-83
2023/09/02 06:21:26;;;;;;;8.88;8.00;;;;;;;;;;4894000;29;20255;-82
2023/09/02 06:23:53;;;;;;;5.78;5.38;;;;;;;;;;4893480;29;20702;-83
2023/09/02 06:26:20;;;;;;;6.35;5.93;;;;;;;;;;4893309;29;20200;-84
2023/09/02 06:28:48;;;;;;;6.20;5.70;;;;;;;;;;4893770;29;20226;-83
2023/09/02 06:31:17;;;;;;;4.78;4.38;;;;;;;;;;4893550;29;20258;-83
2023/09/02 06:33:47;;;;;;;27.05;19.45;;;;;;;;;;4891168;29;20731;-83
2023/09/02 06:36:16;;;;;;;5.10;4.80;;;;;;;;;;4893651;29;20264;-83
2023/09/02 06:38:45;;;;;;;4.82;4.43;;;;;;;;;;4895197;29;20246;-82
2023/09/02 06:41:13;;;;;;;5.57;5.18;;;;;;;;;;4895483;29;20202;-84
2023/09/02 06:43:44;;;;;;;5.03;4.80;;;;;;;;;;4894467;29;20211;-84
2023/09/02 06:46:16;;;;;;;5.45;4.95;;;;;;;;;;4896259;29;20203;-84
2023/09/02 06:49:05;;;;;;;5.75;5.32;;;;;;;;;;4894475;29;20205;-83
2023/09/02 06:51:36;;;;;;;5.63;5.13;;;;;;;;;;4894114;29;20587;-83
2023/09/02 06:54:03;;;;;;;4.97;4.60;;;;;;;;;;4893951;29;20200;-82
2023/09/02 06:56:31;;;;;;;9.43;7.97;;;;;;;;;;4894128;29;20240;-83
2023/09/02 06:59:02;;;;;;;5.57;5.07;;;;;;;;;;4894536;29;20332;-83
2023/09/02 07:01:31;;;;;;;6.32;4.97;;;;;;;;;;4894687;29;20586;-83
2023/09/02 07:03:59;;;;;;;8.68;5.00;;;;;;;;;;4894866;29;20208;-83
2023/09/02 07:06:27;;;;;;;5.97;5.47;;;;;;;;;;4899554;29;20200;-84
2023/09/02 07:08:56;;;;;;;5.75;5.15;;;;;;;;;;4896070;29;20228;-83
2023/09/02 07:11:28;;;;;;;5.63;4.57;;;;;;;;;;4897576;29;20211;-82
2023/09/02 07:13:58;;;;;;;5.82;5.32;;;;;;;;;;4898069;29;20292;-83
2023/09/02 07:16:27;;;;;;;5.25;4.85;;;;;;;;;;4897008;29;20745;-84
2023/09/02 07:18:58;;;;;;;5.35;4.97;;;;;;;;;;4897114;29;20200;-84
2023/09/02 07:21:27;;;;;;;4.28;4.05;;;;;;;;;;4897202;29;20256;-83
2023/09/02 07:23:55;;;;;;;5.60;5.20;;;;;;;;;;4897229;29;20208;-84
2023/09/02 07:26:28;;;;;;;7.63;5.45;;;;;;;;;;4908348;29;20204;-83
2023/09/02 07:28:57;;;;;;;5.78;5.38;;;;;;;;;;4911457;29;20220;-84
2023/09/02 07:31:24;;;;;;;5.13;4.72;;;;;;;;;;4901371;29;20244;-84
2023/09/02 07:33:52;;;;;;;5.55;5.05;;;;;;;;;;4896349;29;20220;-83
2023/09/02 07:36:26;;;;;;;5.40;5.00;;;;;;;;;;4898682;29;20646;-83
2023/09/02 07:38:59;;;;;;;6.03;5.53;;;;;;;;;;4897958;29;20616;-84
2023/09/02 07:41:29;;;;;;;8.85;5.22;;;;;;;;;;4897236;29;20201;-83
2023/09/02 07:46:54;;;;;;;5.90;5.40;;;;;;;;;;4880413;29;20223;-83
2023/09/02 07:49:21;;;;;;;5.05;4.75;;;;;;;;;;4896651;29;20710;-84
2023/09/02 07:51:49;;;;;;;4.90;4.60;;;;;;;;;;4897564;29;20686;-83
2023/09/02 07:54:18;;;;;;;4.63;4.32;;;;;;;;;;4897146;29;20292;-84
2023/09/02 07:56:50;;;;;;;5.72;5.22;;;;;;;;;;4896748;29;20209;-84
2023/09/02 07:59:18;;;;;;;5.82;5.13;;;;;;;;;;4884746;29;20201;-85
2023/09/02 08:01:47;;;;;;;5.40;4.90;;;;;;;;;;4877668;29;20706;-83
2023/09/02 08:04:17;;;;;;;4.78;4.47;;;;;;;;;;4878239;29;20654;-84
2023/09/02 08:06:46;;;;;;;4.82;4.53;;;;;;;;;;4878262;29;20208;-84
2023/09/02 08:09:14;;;;;;;5.28;4.88;;;;;;;;;;4877747;29;20277;-84
2023/09/02 08:11:41;;;;;;;4.78;4.47;;;;;;;;;;4878213;29;20218;-85
2023/09/02 08:14:10;;;;;;;5.38;4.90;;;;;;;;;;4877752;29;20205;-84
2023/09/02 08:16:38;;;;;;;6.43;4.63;;;;;;;;;;4877544;29;20213;-85
2023/09/02 08:19:07;;;;;;;9.48;5.60;;;;;;;;;;4877315;29;20205;-84
2023/09/02 08:21:34;;;;;;;4.93;4.63;;;;;;;;;;4876796;29;20744;-84
2023/09/02 08:24:03;;;;;;;5.35;4.93;;;;;;;;;;4877441;29;20209;-83
2023/09/02 08:26:30;;;;;;;4.88;4.50;;;;;;;;;;4877510;29;20206;-84
2023/09/02 08:28:58;;;;;;;4.90;4.47;;;;;;;;;;4877895;29;21004;-84
2023/09/02 08:31:28;;;;;;;7.18;4.68;;;;;;;;;;4881300;29;20310;-85
2023/09/02 08:33:56;;;;;;;4.57;4.18;;;;;;;;;;4879513;29;20221;-83
2023/09/02 08:36:25;;;;;;;4.70;4.40;;;;;;;;;;4887780;29;20618;-83
2023/09/02 08:38:55;;;;;;;5.57;5.07;;;;;;;;;;4882434;29;20714;-84
2023/09/02 08:41:27;;;;;;;5.53;5.13;;;;;;;;;;4882102;29;20288;-83
2023/09/02 08:43:56;;;;;;;4.65;4.35;;;;;;;;;;4885376;29;20225;-82
2023/09/02 08:46:29;;;;;;;4.85;4.43;;;;;;;;;;4884708;29;20213;-84
2023/09/02 08:48:58;;;;;;;4.88;4.65;;;;;;;;;;4884571;29;20621;-85
2023/09/02 08:51:26;;;;;;;4.90;4.57;;;;;;;;;;4889532;29;20204;-84
2023/09/02 08:53:56;;;;;;;4.80;4.40;;;;;;;;;;4884629;29;20684;-83
2023/09/02 08:56:24;;;;;;;5.13;4.40;;;;;;;;;;4888042;29;20260;-83
2023/09/02 08:58:57;;;;;;;4.40;4.03;;;;;;;;;;4887453;29;20292;-83
2023/09/02 09:01:25;;;;;;;7.05;4.15;;;;;;;;;;4884658;29;20311;-83
2023/09/02 09:03:54;;;;;;;5.18;4.78;;;;;;;;;;4887017;29;20234;-85
2023/09/02 09:06:25;;;;;;;4.55;4.22;;;;;;;;;;4884817;29;20281;-84
2023/09/02 09:08:54;;;;;;;4.68;4.38;;;;;;;;;;4883101;29;20240;-83
2023/09/02 09:11:24;;;;;;;5.35;4.75;;;;;;;;;;4885040;29;20208;-85
2023/09/02 09:13:52;;;;;;;4.28;3.88;;;;;;;;;;4883506;29;20643;-82
2023/09/02 09:16:21;;;;;;;4.30;3.90;;;;;;;;;;4886937;29;20289;-84
2023/09/02 09:18:49;;;;;;;4.45;4.25;;;;;;;;;;4881508;29;20212;-82
2023/09/02 09:21:17;;;;;;;4.13;3.92;;;;;;;;;;4885129;29;20367;-82
2023/09/02 09:23:46;;;;;;;5.93;4.20;;;;;;;;;;4882705;29;20241;-84
2023/09/02 09:26:15;;;;;;;4.35;4.05;;;;;;;;;;4885537;29;20292;-83
2023/09/02 09:28:53;;;;;;;3.60;3.40;;;;;;;;;;4886464;29;20212;-85
2023/09/02 09:31:22;;;;;;;4.43;4.03;;;;;;;;;;4885144;29;20237;-82
2023/09/02 09:33:53;;;;;;;4.10;3.75;;;;;;;;;;4882530;29;20197;-82
2023/09/02 09:36:21;;;;;;;4.13;3.88;;;;;;;;;;4885193;29;20626;-83
2023/09/02 09:38:54;;;;;;;4.22;3.97;;;;;;;;;;4881173;29;20281;-83
2023/09/02 09:41:22;;;;;;;7.10;4.25;;;;;;;;;;4887761;29;20204;-84
2023/09/02 09:44:03;;;;;;;4.18;3.78;;;;;;;;;;4875819;29;20237;-83
2023/09/02 09:46:34;;;;;;;4.32;4.03;;;;;;;;;;4891330;29;20295;-84
2023/09/02 09:49:02;;;;;;;4.18;3.95;;;;;;;;;;4894186;29;20208;-82
2023/09/02 09:51:29;;;;;;;4.07;3.88;;;;;;;;;;4896069;29;20765;-83
2023/09/02 09:53:57;;;;;;;3.60;3.30;;;;;;;;;;4895987;29;20710;-83
2023/09/02 09:56:25;;;;;;;4.38;3.45;;;;;;;;;;4905057;29;20442;-82
2023/09/02 09:58:55;;;;;;;4.22;3.97;;;;;;;;;;4908441;29;20233;-84
2023/09/02 10:01:23;;;;;;;5.22;3.78;;;;;;;;;;4897429;29;20264;-83
2023/09/02 10:03:50;;;;;;;4.95;3.60;;;;;;;;;;4895202;29;20256;-83
2023/09/02 10:06:18;;;;;;;4.00;3.70;;;;;;;;;;4894903;29;20593;-83
2023/09/02 10:08:59;;;;;;;3.83;3.60;;;;;;;;;;4894077;29;20288;-82
2023/09/02 10:11:28;;;;;;;3.30;3.10;;;;;;;;;;4894586;29;20204;-83
2023/09/02 10:13:57;;;;;;;3.60;3.50;;;;;;;;;;4894585;29;20260;-83
2023/09/02 10:16:27;;;;;;;3.42;3.20;;;;;;;;;;4894562;29;20227;-82
2023/09/02 10:18:56;;;;;;;3.70;3.30;;;;;;;;;;4894688;29;20633;-83
2023/09/02 10:21:25;;;;;;;4.57;4.28;;;;;;;;;;4896566;29;20305;-83
2023/09/02 10:23:55;;;;;;;3.33;3.13;;;;;;;;;;4892132;29;20915;-84
2023/09/02 10:26:25;;;;;;;4.30;4.00;;;;;;;;;;4895326;29;20212;-83
2023/09/02 10:29:00;;;;;;;3.67;3.47;;;;;;;;;;4880042;29;20267;-82
2023/09/02 10:31:33;;;;;;;7.18;3.55;;;;;;;;;;4875440;29;20260;-83
2023/09/02 10:34:07;;;;;;;3.45;3.25;;;;;;;;;;4876440;29;20401;-83
2023/09/02 10:36:53;;;;;;;8.20;3.58;;;;;;;;;;4875342;29;20687;-84
2023/09/02 10:39:25;;;;;;;3.78;3.47;;;;;;;;;;4875393;29;20679;-84
2023/09/02 10:41:54;;;;;;;4.70;3.53;;;;;;;;;;4877908;29;20219;-82
2023/09/02 10:44:23;;;;;;;3.67;3.47;;;;;;;;;;4878983;29;20330;-84
2023/09/02 10:46:50;;;;;;;3.58;3.38;;;;;;;;;;4879644;29;20205;-82
2023/09/02 10:49:18;;;;;;;3.38;3.17;;;;;;;;;;4879330;29;20346;-82
2023/09/02 10:51:45;;;;;;;2.75;2.65;;;;;;;;;;4878842;29;20209;-85
2023/09/02 10:54:14;;;;;;;2.97;2.88;;;;;;;;;;4879640;29;20217;-83
2023/09/02 10:56:41;;;;;;;3.33;3.22;;;;;;;;;;4879181;29;20242;-85
2023/09/02 10:59:09;;;;;;;3.25;3.05;;;;;;;;;;4879544;29;20686;-83
2023/09/02 11:01:48;;;;;;;3.22;2.83;;;;;;;;;;4879298;29;20686;-83
2023/09/02 11:04:16;;;;;;;3.40;3.20;;;;;;;;;;4878291;29;20236;-83
2023/09/02 11:07:02;;;;;;;3.28;2.97;;;;;;;;;;4890484;29;20266;-82
2023/09/02 11:09:49;;;;;;;3.45;3.25;;;;;;;;;;4897697;29;20255;-81
2023/09/02 11:12:16;;;;;;;3.60;3.40;;;;;;;;;;4897809;29;20733;-82
2023/09/02 11:15:03;;;;;;;3.25;3.13;;;;;;;;;;4896980;29;20701;-83
2023/09/02 11:17:32;;;;;;;3.72;3.47;;;;;;;;;;4896997;29;20692;-83
2023/09/02 11:19:59;;;;;;;6.20;3.40;;;;;;;;;;4897892;29;20596;-83
2023/09/02 11:22:45;;;;;;;3.50;3.30;;;;;;;;;;4897507;29;20311;-83
2023/09/02 11:25:23;;;;;;;3.08;2.85;;;;;;;;;;4897530;29;20363;-83
2023/09/02 11:27:50;;;;;;;3.50;3.40;;;;;;;;;;4897947;29;20233;-82
2023/09/02 11:30:22;;;;;;;3.90;3.60;;;;;;;;;;4897790;29;20216;-83
2023/09/02 11:32:54;;;;;;;4.00;3.80;;;;;;;;;;4897035;29;20228;-83
2023/09/02 11:35:25;;;;;;;3.45;3.25;;;;;;;;;;4897212;29;20212;-83
2023/09/02 11:37:52;;;;;;;3.67;2.97;;;;;;;;;;4896812;29;20216;-83
2023/09/02 11:40:20;;;;;;;3.85;3.55;;;;;;;;;;4898358;29;20204;-82
2023/09/02 11:42:54;;;;;;;3.70;3.40;;;;;;;;;;4879085;29;20651;-84
2023/09/02 11:45:21;;;;;;;3.33;3.10;;;;;;;;;;4876977;29;20737;-82
2023/09/02 11:47:50;;;;;;;3.45;3.22;;;;;;;;;;4875314;29;20268;-82
2023/09/02 11:50:22;;;;;;;3.40;3.25;;;;;;;;;;4875911;29;20933;-84
2023/09/02 11:52:53;;;;;;;3.45;3.25;;;;;;;;;;4876562;29;20242;-84
2023/09/02 11:55:20;;;;;;;3.28;3.08;;;;;;;;;;4865792;29;20734;-83
2023/09/02 11:57:48;;;;;;;4.20;4.00;;;;;;;;;;4876991;29;20656;-82
2023/09/02 12:00:16;;;;;;;3.30;3.10;;;;;;;;;;4877956;29;20327;-82
2023/09/02 12:02:43;;;;;;;3.88;3.67;;;;;;;;;;4876816;29;20222;-83
2023/09/02 12:05:10;;;;;;;5.78;3.47;;;;;;;;;;4877167;29;20229;-83
2023/09/02 12:07:40;;;;;;;4.00;3.65;;;;;;;;;;4872683;29;20280;-82
2023/09/02 12:10:08;;;;;;;3.28;3.08;;;;;;;;;;4876558;29;20533;-83
2023/09/02 12:12:36;;;;;;;3.95;3.65;;;;;;;;;;4876550;29;20237;-82
2023/09/02 12:15:04;;;;;;;3.78;3.58;;;;;;;;;;4876798;29;20233;-83
2023/09/02 12:17:34;;;;;;;4.03;3.67;;;;;;;;;;4875513;29;20294;-84
2023/09/02 12:20:01;;;;;;;3.63;3.33;;;;;;;;;;4876065;29;20297;-82
2023/09/02 12:22:28;;;;;;;3.85;3.55;;;;;;;;;;4882743;29;20726;-82
2023/09/02 12:24:58;;;;;;;4.28;3.50;;;;;;;;;;4877733;29;20329;-82
2023/09/02 12:27:24;;;;;;;3.35;3.15;;;;;;;;;;4875943;29;20229;-83
2023/09/02 12:29:57;;;;;;;4.50;3.42;;;;;;;;;;4875268;29;20256;-84
2023/09/02 12:32:24;;;;;;;4.00;3.55;;;;;;;;;;4875876;29;20249;-83
2023/09/02 12:34:52;;;;;;;4.30;4.00;;;;;;;;;;4875887;29;20237;-83
2023/09/02 12:37:20;;;;;;;3.20;3.10;;;;;;;;;;4876538;29;20297;-83
2023/09/02 12:39:48;;;;;;;3.28;3.08;;;;;;;;;;4876619;29;20236;-82
2023/09/02 12:42:22;;;;;;;3.90;3.60;;;;;;;;;;4876028;29;20234;-83
2023/09/02 12:44:52;;;;;;;3.95;3.65;;;;;;;;;;4876211;29;20249;-82
2023/09/02 12:47:21;;;;;;;3.10;3.00;;;;;;;;;;4875914;29;20226;-83
2023/09/02 12:49:50;;;;;;;3.63;3.42;;;;;;;;;;4874692;29;20241;-83
2023/09/02 12:52:18;;;;;;;3.60;3.40;;;;;;;;;;4875671;29;20711;-83
2023/09/02 12:54:54;;;;;;;3.67;3.47;;;;;;;;;;4876104;29;20708;-83
2023/09/02 12:57:23;;;;;;;3.53;3.33;;;;;;;;;;4875313;29;20754;-83
2023/09/02 12:59:52;;;;;;;3.92;3.63;;;;;;;;;;4876122;29;20225;-82
2023/09/02 13:02:19;;;;;;;3.92;3.63;;;;;;;;;;4875553;29;20312;-83
2023/09/02 13:04:54;;;;;;;4.47;2.85;;;;;;;;;;4873101;29;20336;-83
2023/09/02 13:07:22;;;;;;;3.78;3.47;;;;;;;;;;4875935;29;20225;-84
2023/09/02 13:09:50;;;;;;;4.07;3.78;;;;;;;;;;4875578;29;20257;-84
2023/09/02 13:12:17;;;;;;;3.47;3.28;;;;;;;;;;4875280;29;20232;-84
2023/09/02 13:14:47;;;;;;;3.78;3.58;;;;;;;;;;4875916;29;20277;-85
2023/09/02 13:17:15;;;;;;;4.10;3.85;;;;;;;;;;4874775;29;20229;-83
2023/09/02 13:19:42;;;;;;;3.90;3.60;;;;;;;;;;4875165;29;20738;-83
2023/09/02 13:22:11;;;;;;;6.28;4.03;;;;;;;;;;4875692;29;20761;-83
2023/09/02 13:24:41;;;;;;;3.97;3.30;;;;;;;;;;4875326;29;20328;-84
2023/09/02 13:27:09;;;;;;;4.32;3.92;;;;;;;;;;4874992;29;20611;-83
2023/09/02 13:29:36;;;;;;;4.47;4.07;;;;;;;;;;4874478;29;20629;-83
2023/09/02 13:32:06;;;;;;;3.47;3.28;;;;;;;;;;4874409;29;20315;-83
2023/09/02 13:34:35;;;;;;;3.10;2.90;;;;;;;;;;4875991;29;20708;-84
2023/09/02 13:37:07;;;;;;;4.13;2.90;;;;;;;;;;4876249;29;20308;-83
2023/09/02 13:39:34;;;;;;;2.70;2.60;;;;;;;;;;4882890;29;20614;-82
2023/09/02 13:42:03;;;;;;;3.08;2.88;;;;;;;;;;4884426;29;20234;-83
2023/09/02 13:44:30;;;;;;;3.25;3.05;;;;;;;;;;4886948;29;20240;-84
2023/09/02 13:46:57;;;;;;;3.25;3.05;;;;;;;;;;4893040;29;20229;-83
2023/09/02 13:49:26;;;;;;;3.10;2.90;;;;;;;;;;4900975;29;20233;-82
2023/09/02 13:51:53;;;;;;;2.85;2.75;;;;;;;;;;4899581;29;20240;-83
2023/09/02 13:54:23;;;;;;;3.05;2.75;;;;;;;;;;4896636;29;20276;-83
2023/09/02 13:56:50;;;;;;;3.00;2.85;;;;;;;;;;4887420;29;20698;-83
2023/09/02 13:59:19;;;;;;;3.92;3.63;;;;;;;;;;4876615;29;20619;-83
2023/09/02 14:01:48;;;;;;;3.53;3.22;;;;;;;;;;4875193;29;20229;-83
2023/09/02 14:04:17;;;;;;;3.72;3.17;;;;;;;;;;4875770;29;20353;-83
2023/09/02 14:06:47;;;;;;;2.72;2.55;;;;;;;;;;4873836;29;20330;-83
2023/09/02 14:09:22;;;;;;;2.70;2.50;;;;;;;;;;4874262;29;20778;-85
2023/09/02 14:11:49;;;;;;;3.33;3.13;;;;;;;;;;4873445;29;20762;-83
2023/09/02 14:14:20;;;;;;;2.97;2.60;;;;;;;;;;4874927;29;20269;-84
2023/09/02 14:16:58;;;;;;;4.13;3.70;;;;;;;;;;4874438;29;20237;-83
2023/09/02 14:19:25;;;;;;;4.68;4.30;;;;;;;;;;4874893;29;20228;-83
2023/09/02 14:21:54;;;;;;;3.65;3.45;;;;;;;;;;4874392;29;20293;-84
2023/09/02 14:24:22;;;;;;;4.38;3.45;;;;;;;;;;4874392;29;20611;-83
2023/09/02 14:27:14;;;;;;;4.78;3.10;;;;;;;;;;4883954;29;20236;-82
2023/09/02 14:29:41;;;;;;;4.20;3.03;;;;;;;;;;4888702;29;20237;-82
2023/09/02 14:32:08;;;;;;;3.22;3.03;;;;;;;;;;4893899;29;20256;-82
2023/09/02 14:34:36;;;;;;;3.17;2.97;;;;;;;;;;4897080;29;20247;-82
2023/09/02 14:37:05;;;;;;;3.33;3.13;;;;;;;;;;4892688;29;20240;-82
2023/09/02 14:39:33;;;;;;;3.08;2.97;;;;;;;;;;4893261;29;20228;-82
2023/09/02 14:42:02;;;;;;;4.30;4.00;;;;;;;;;;4886138;29;20238;-82
2023/09/02 14:44:29;;;;;;;3.30;3.17;;;;;;;;;;4874314;29;20269;-81
2023/09/02 14:46:56;;;;;;;2.90;2.80;;;;;;;;;;4874195;29;20273;-82
2023/09/02 14:49:23;;;;;;;3.30;3.10;;;;;;;;;;4873859;29;20562;-82
2023/09/02 14:51:52;;;;;;;3.35;3.05;;;;;;;;;;4873494;29;20267;-82
2023/09/02 14:54:21;;;;;;;4.05;3.78;;;;;;;;;;4874470;29;20647;-82
2023/09/02 14:56:50;;;;;;;3.70;3.50;;;;;;;;;;4873163;29;20236;-82
2023/09/02 14:59:20;;;;;;;3.47;3.17;;;;;;;;;;4874204;29;20237;-82